Norfolk, Virginia
Traffic Map
Current Weather Conditions
Norfolk, Virginia
Overcast
Overcast
78°
Feels Like: 80°
Wind Chill: 78° Ceiling: 10000
Heat Index: 80° Visibility: 10mi
Dew Point: 63° Wind: 18mph
Humidity: 60% Direction: 190° (S)
Pressure: 29.79in Gusts: 0mph
Raw Report DataKORF 242351Z AUTO 19016KT 10SM OVC100 26/17 A2979 RMK AO2 SLP088 T02560172 10267 20217 53011 TSNO
Traffic Incident Summary
Active as of:
Severity:
Category:
InformationThere was an issue retrieving the traffic information for this location. Please try a different location or try again shortly.
Advertisements
Track Severe Weather on mobile